Time,TemperatureF,DewpointF,PressureIn,WindDirection,WindDirectionDegrees,WindSpeedMPH,WindSpeedGustMPH,Humidity,HourlyPrecipIn,Conditions,Clouds,dailyrainin,SolarRadiationWatts/m^2,SoftwareType,DateUTC
2013-09-26 00:22:00,31.0,30.0,-100.00,West,278,8.0,11.0,95,-99.99,,,0.00,0.000000,,2013-09-26 06:22:00,
2013-09-26 00:33:00,31.0,30.0,-100.00,West,278,8.0,11.0,95,-99.99,,,0.00,0.000000,,2013-09-26 06:33:00,
2013-09-26 00:42:00,31.0,30.0,-100.00,West,278,8.0,11.0,95,-99.99,,,0.00,0.000000,,2013-09-26 06:42:00,
2013-09-26 00:52:00,30.0,29.0,-100.00,West,271,8.0,12.0,96,0.00,,,0.00,0.000000,,2013-09-26 06:52:00,
2013-09-26 01:42:00,30.0,29.0,-100.00,West,271,8.0,12.0,96,0.00,,,0.00,0.000000,,2013-09-26 07:42:00,
2013-09-26 01:52:00,30.0,29.0,-100.00,West,262,9.0,14.0,97,0.00,,,0.00,0.000000,,2013-09-26 07:52:00,
2013-09-26 02:42:00,30.0,29.0,-100.00,West,262,9.0,14.0,97,0.00,,,0.00,0.000000,,2013-09-26 08:42:00,
2013-09-26 02:52:00,29.0,28.0,-100.00,WSW,257,7.0,12.0,97,0.00,,,0.00,0.000000,,2013-09-26 08:52:00,
2013-09-26 03:22:00,29.0,28.0,-100.00,WSW,257,7.0,12.0,97,0.00,,,0.00,0.000000,,2013-09-26 09:22:00,
2013-09-26 03:33:00,29.0,28.0,-100.00,WSW,257,7.0,12.0,97,0.00,,,0.00,0.000000,,2013-09-26 09:33:00,
2013-09-26 03:43:00,29.0,28.0,-100.00,WSW,257,7.0,12.0,97,0.00,,,0.00,0.000000,,2013-09-26 09:43:00,
2013-09-26 03:52:00,29.0,28.0,-100.00,WSW,257,7.0,11.0,96,0.00,,,0.00,0.000000,,2013-09-26 09:52:00,
2013-09-26 04:23:00,29.0,28.0,-100.00,WSW,257,7.0,11.0,96,0.00,,,0.00,0.000000,,2013-09-26 10:23:00,
2013-09-26 04:32:00,29.0,28.0,-100.00,WSW,257,7.0,11.0,96,0.00,,,0.00,0.000000,,2013-09-26 10:32:00,
2013-09-26 04:42:00,29.0,28.0,-100.00,WSW,257,7.0,11.0,96,0.00,,,0.00,0.000000,,2013-09-26 10:42:00,
2013-09-26 04:52:00,29.0,28.0,-100.00,West,262,4.0,11.0,97,0.00,,,0.00,0.000000,,2013-09-26 10:52:00,
2013-09-26 05:22:00,29.0,28.0,-100.00,West,262,4.0,11.0,97,0.00,,,0.00,0.000000,,2013-09-26 11:22:00,
2013-09-26 05:33:00,29.0,28.0,-100.00,West,262,4.0,11.0,97,0.00,,,0.00,0.000000,,2013-09-26 11:33:00,
2013-09-26 05:42:00,29.0,28.0,-100.00,West,262,4.0,11.0,97,0.00,,,0.00,0.000000,,2013-09-26 11:42:00,
2013-09-26 05:52:00,27.0,26.0,-100.00,West,264,4.0,6.0,97,0.00,,,0.00,0.000000,,2013-09-26 11:52:00,
2013-09-26 06:22:00,27.0,26.0,-100.00,West,264,4.0,6.0,97,0.00,,,0.00,0.000000,,2013-09-26 12:22:00,
2013-09-26 06:32:00,27.0,26.0,-100.00,West,264,4.0,6.0,97,0.00,,,0.00,0.000000,,2013-09-26 12:32:00,
2013-09-26 06:42:00,27.0,26.0,-100.00,West,264,4.0,6.0,97,0.00,,,0.00,0.000000,,2013-09-26 12:42:00,
2013-09-26 06:52:00,25.0,24.0,-100.00,West,268,2.0,4.0,94,0.00,,,0.00,1.000000,,2013-09-26 12:52:00,
2013-09-26 07:42:00,25.0,24.0,-100.00,West,268,2.0,4.0,94,0.00,,,0.00,1.000000,,2013-09-26 13:42:00,
2013-09-26 07:52:00,28.0,26.0,-100.00,WNW,296,1.0,2.0,92,0.00,,,0.00,28.000000,,2013-09-26 13:52:00,
2013-09-26 08:22:00,28.0,26.0,-100.00,WNW,296,1.0,2.0,92,0.00,,,0.00,28.000000,,2013-09-26 14:22:00,
2013-09-26 08:32:00,28.0,26.0,-100.00,WNW,296,1.0,2.0,92,0.00,,,0.00,28.000000,,2013-09-26 14:32:00,
2013-09-26 08:42:00,28.0,26.0,-100.00,WNW,296,1.0,2.0,92,0.00,,,0.00,28.000000,,2013-09-26 14:42:00,
2013-09-26 08:52:00,47.0,26.0,-100.00,SSW,211,6.0,13.0,43,0.00,,,0.00,193.000000,,2013-09-26 14:52:00,
2013-09-26 10:52:00,56.0,21.0,-100.00,SSW,203,10.0,22.0,25,0.00,,,0.00,688.000000,,2013-09-26 16:52:00,
2013-09-26 11:43:00,56.0,21.0,-100.00,SSW,203,10.0,22.0,25,0.00,,,0.00,688.000000,,2013-09-26 17:43:00,
2013-09-26 11:52:00,58.0,21.0,-100.00,SSW,213,10.0,25.0,24,0.00,,,0.00,824.000000,,2013-09-26 17:52:00,
2013-09-26 12:22:00,58.0,21.0,-100.00,SSW,213,10.0,25.0,24,0.00,,,0.00,824.000000,,2013-09-26 18:22:00,
2013-09-26 12:32:00,58.0,21.0,-100.00,SSW,213,10.0,25.0,24,0.00,,,0.00,824.000000,,2013-09-26 18:32:00,
2013-09-26 12:42:00,58.0,21.0,-100.00,SSW,213,10.0,25.0,24,0.00,,,0.00,824.000000,,2013-09-26 18:42:00,
2013-09-26 12:52:00,61.0,21.0,-100.00,SSW,200,12.0,25.0,21,0.00,,,0.00,908.000000,,2013-09-26 18:52:00,
2013-09-26 13:22:00,61.0,21.0,-100.00,SSW,200,12.0,25.0,21,0.00,,,0.00,908.000000,,2013-09-26 19:22:00,
2013-09-26 13:32:00,61.0,21.0,-100.00,SSW,200,12.0,25.0,21,0.00,,,0.00,908.000000,,2013-09-26 19:32:00,
2013-09-26 13:43:00,61.0,21.0,-100.00,SSW,200,12.0,25.0,21,0.00,,,0.00,908.000000,,2013-09-26 19:43:00,
2013-09-26 13:52:00,62.0,20.0,-100.00,SW,236,11.0,23.0,20,0.00,,,0.00,936.000000,,2013-09-26 19:52:00,
2013-09-26 14:22:00,62.0,20.0,-100.00,SW,236,11.0,23.0,20,0.00,,,0.00,936.000000,,2013-09-26 20:22:00,
2013-09-26 14:32:00,62.0,20.0,-100.00,SW,236,11.0,23.0,20,0.00,,,0.00,936.000000,,2013-09-26 20:32:00,
2013-09-26 14:43:00,62.0,20.0,-100.00,SW,236,11.0,23.0,20,0.00,,,0.00,936.000000,,2013-09-26 20:43:00,
2013-09-26 15:52:00,63.0,20.0,-100.00,SW,226,14.0,28.0,19,0.00,,,0.00,713.000000,,2013-09-26 21:52:00,
2013-09-26 16:24:00,63.0,20.0,-100.00,SW,226,14.0,28.0,19,0.00,,,0.00,713.000000,,2013-09-26 22:24:00,
2013-09-26 16:32:00,63.0,20.0,-100.00,SW,226,14.0,28.0,19,0.00,,,0.00,713.000000,,2013-09-26 22:32:00,
2013-09-26 16:43:00,63.0,20.0,-100.00,SW,226,14.0,28.0,19,0.00,,,0.00,713.000000,,2013-09-26 22:43:00,
2013-09-26 17:52:00,57.0,25.0,-100.00,WNW,287,6.0,17.0,29,0.00,,,0.00,266.000000,,2013-09-26 23:52:00,
2013-09-26 18:22:00,57.0,25.0,-100.00,WNW,287,6.0,17.0,29,0.00,,,0.00,266.000000,,2013-09-27 00:22:00,
2013-09-26 18:32:00,57.0,25.0,-100.00,WNW,287,6.0,17.0,29,0.00,,,0.00,266.000000,,2013-09-27 00:32:00,
2013-09-26 18:43:00,57.0,25.0,-100.00,WNW,287,6.0,17.0,29,0.00,,,0.00,266.000000,,2013-09-27 00:43:00,
2013-09-26 18:52:00,49.0,35.0,-100.00,NNE,20,5.0,15.0,59,0.00,,,0.00,25.000000,,2013-09-27 00:52:00,
2013-09-26 19:23:00,49.0,35.0,-100.00,NNE,20,5.0,15.0,59,0.00,,,0.00,25.000000,,2013-09-27 01:23:00,
2013-09-26 19:32:00,49.0,35.0,-100.00,NNE,20,5.0,15.0,59,0.00,,,0.00,25.000000,,2013-09-27 01:32:00,
2013-09-26 19:42:00,49.0,35.0,-100.00,NNE,20,5.0,15.0,59,0.00,,,0.00,25.000000,,2013-09-27 01:42:00,
2013-09-26 19:52:00,46.0,35.0,-100.00,ENE,61,2.0,10.0,66,0.00,,,0.00,1.000000,,2013-09-27 01:52:00,
2013-09-26 20:22:00,46.0,35.0,-100.00,ENE,61,2.0,10.0,66,0.00,,,0.00,1.000000,,2013-09-27 02:22:00,
2013-09-26 20:32:00,46.0,35.0,-100.00,ENE,61,2.0,10.0,66,0.00,,,0.00,1.000000,,2013-09-27 02:32:00,
2013-09-26 20:42:00,46.0,35.0,-100.00,ENE,61,2.0,10.0,66,0.00,,,0.00,1.000000,,2013-09-27 02:42:00,
2013-09-26 20:52:00,45.0,35.0,-100.00,ENE,59,4.0,7.0,68,0.00,,,0.00,0.000000,,2013-09-27 02:52:00,
2013-09-26 21:22:00,45.0,35.0,-100.00,ENE,59,4.0,7.0,68,0.00,,,0.00,0.000000,,2013-09-27 03:22:00,
2013-09-26 21:34:00,45.0,35.0,-100.00,ENE,59,4.0,7.0,68,0.00,,,0.00,0.000000,,2013-09-27 03:34:00,
2013-09-26 21:44:00,45.0,35.0,-100.00,ENE,59,4.0,7.0,68,0.00,,,0.00,0.000000,,2013-09-27 03:44:00,
2013-09-26 21:52:00,45.0,36.0,-100.00,ESE,109,3.0,7.0,70,0.00,,,-99.99,0.000000,,2013-09-27 03:52:00,
2013-09-26 22:24:00,45.0,36.0,-100.00,ESE,109,3.0,7.0,70,0.00,,,-99.99,0.000000,,2013-09-27 04:24:00,
2013-09-26 22:33:00,45.0,36.0,-100.00,ESE,109,3.0,7.0,70,0.00,,,-99.99,0.000000,,2013-09-27 04:33:00,
2013-09-26 22:44:00,45.0,36.0,-100.00,ESE,109,3.0,7.0,70,0.00,,,-99.99,0.000000,,2013-09-27 04:44:00,
2013-09-26 22:52:00,42.0,35.0,-100.00,ESE,116,1.0,8.0,77,0.00,,,0.00,0.000000,,2013-09-27 04:52:00,
2013-09-26 23:23:00,42.0,35.0,-100.00,ESE,116,1.0,8.0,77,0.00,,,0.00,0.000000,,2013-09-27 05:23:00,
2013-09-26 23:34:00,42.0,35.0,-100.00,ESE,116,1.0,8.0,77,0.00,,,0.00,0.000000,,2013-09-27 05:34:00,
2013-09-26 23:43:00,42.0,35.0,-100.00,ESE,116,1.0,8.0,77,0.00,,,0.00,0.000000,,2013-09-27 05:43:00,